FSIA/SEZ METAR and TAF weather

Enter ICAO airport designator
Station Type Date Time Source
FSIA METAR 2022/11/30 11:00 UTC NOAA

FSIA 301100Z 20006KT 9999 FEW023 30/22 Q1008 NOSIG


Station Type Date Time Source
FSIA Decoded METAR 2022/11/30 11:00 UTC NOAA

Seychelles Inter-National Airport, Seychelles (FSIA) 04-40S 055-31E 3M
Nov 30, 2022 - 06:00 AM EST / 2022.11.30 1100 UTC
Wind: from the SSW (200 degrees) at 7 MPH (6 KT):0
Visibility: greater than 7 mile(s):0
Sky conditions: mostly clear
Temperature: 86 F (30 C)
Heat index: 91.8 F (33.2 C):1
Dew Point: 71 F (22 C)
Relative Humidity: 62%
Pressure (altimeter): 29.77 in. Hg (1008 hPa)
ob: FSIA 301100Z 20006KT 9999 FEW023 30/22 Q1008 NOSIG
cycle: 11

Station Type Date Time Source
FSIA TAF 2022/11/30 12:13 UTC NOAA

TAF FSIA 301103Z 3012/0112 22008KT 9999 FEW024

Example: see airport list